Time;durP1;ratioP1;P1;durP2;ratioP2;P2;SDS_P1;SDS_P2;PMS_P1;PMS_P2;Temp;Humidity;BMP_temperature;BMP_pressure;BME280_temperature;BME280_humidity;BME280_pressure;Samples;Min_cycle;Max_cycle;Signal;HPM_P1;HPM_P2
2022/05/06 00:02:04;;;;;;;1999.90;999.90;;;;;;;17.40;60.34;95744.50;4955502;28;20787;-72
2022/05/06 00:04:29;;;;;;;1999.90;999.90;;;;;;;17.02;61.10;95720.53;4973037;28;20025;-71
2022/05/06 00:06:55;;;;;;;1999.90;999.90;;;;;;;16.14;61.61;95746.41;4955618;28;20033;-72
2022/05/06 00:09:22;;;;;;;1999.90;999.90;;;;;;;16.56;63.29;95744.56;4972570;28;20023;-72
2022/05/06 00:11:47;;;;;;;1999.90;999.90;;;;;;;16.66;62.20;95747.97;4973076;28;20027;-72
2022/05/06 00:14:12;;;;;;;1999.90;999.90;;;;;;;16.66;63.51;95751.44;4955529;28;20159;-72
2022/05/06 00:16:38;;;;;;;1999.90;999.90;;;;;;;16.80;64.90;95751.22;4955488;28;20027;-72
2022/05/06 00:19:03;;;;;;;1999.90;999.90;;;;;;;16.92;64.52;95762.03;4972615;28;20081;-72
2022/05/06 00:21:29;;;;;;;1999.90;999.90;;;;;;;17.04;64.96;95748.63;4955599;28;20118;-73
2022/05/06 00:23:54;;;;;;;1999.90;999.90;;;;;;;16.86;64.26;95721.13;4955440;28;20054;-72
2022/05/06 00:26:19;;;;;;;1999.90;999.90;;;;;;;17.00;64.09;95755.81;4972820;28;20023;-72
2022/05/06 00:28:45;;;;;;;1999.90;999.90;;;;;;;16.96;64.30;95760.25;4972195;28;20380;-72
2022/05/06 00:31:10;;;;;;;1999.90;999.90;;;;;;;16.88;64.59;95731.53;4955166;28;20114;-72
2022/05/06 00:33:35;;;;;;;1999.90;999.90;;;;;;;16.92;64.34;95740.53;4954886;28;20030;-71
2022/05/06 00:36:03;;;;;;;1999.90;999.90;;;;;;;16.72;62.66;95744.78;4972568;28;20102;-71
2022/05/06 00:38:29;;;;;;;1999.90;999.90;;;;;;;16.42;64.25;95733.28;4972099;28;20506;-72
2022/05/06 00:40:55;;;;;;;1999.90;999.90;;;;;;;16.47;64.70;95719.66;4972326;28;20475;-72
2022/05/06 00:43:21;;;;;;;1999.90;999.90;;;;;;;16.53;65.22;95707.63;4972497;28;20038;-72
2022/05/06 00:45:52;;;;;;;1999.90;999.90;;;;;;;16.44;64.14;95735.66;4972371;28;20114;-72
2022/05/06 00:48:19;;;;;;;1999.90;999.90;;;;;;;16.54;65.11;95744.13;4954693;28;20022;-72
2022/05/06 00:50:45;;;;;;;1999.90;999.90;;;;;;;16.63;65.96;95736.78;4972277;28;20476;-73
2022/05/06 00:53:12;;;;;;;1999.90;999.90;;;;;;;16.66;66.14;95718.44;4972229;28;20026;-73
2022/05/06 00:55:38;;;;;;;1999.90;999.90;;;;;;;16.63;64.11;95717.19;4972391;28;20045;-72
2022/05/06 00:58:04;;;;;;;1999.90;999.90;;;;;;;16.62;66.04;95716.41;4971877;28;20113;-72
2022/05/06 01:00:30;;;;;;;1999.90;999.90;;;;;;;16.49;65.95;95697.88;4955066;28;20544;-73
2022/05/06 01:02:55;;;;;;;1999.90;999.90;;;;;;;16.67;67.11;95726.16;4954914;28;20050;-72
2022/05/06 01:05:22;;;;;;;1999.90;999.90;;;;;;;16.61;67.13;95717.50;4971832;28;20392;-73
2022/05/06 01:07:49;;;;;;;1999.90;999.90;;;;;;;16.14;64.36;95722.25;4971568;28;20023;-70
2022/05/06 01:10:16;;;;;;;1999.90;999.90;;;;;;;15.32;66.62;95697.50;4954128;28;20050;-72
2022/05/06 01:12:42;;;;;;;1999.90;999.90;;;;;;;15.02;68.15;95704.66;4971854;28;20031;-72
2022/05/06 01:15:20;;;;;;;1999.90;999.90;;;;;;;15.21;69.83;95707.00;4954223;28;20027;-71
2022/05/06 01:17:47;;;;;;;1999.90;999.90;;;;;;;14.47;71.43;95705.28;4971574;28;20033;-72
2022/05/06 01:20:16;;;;;;;1999.90;999.90;;;;;;;14.81;71.56;95696.50;4971256;28;20084;-72
2022/05/06 01:22:47;;;;;;;1999.90;999.90;;;;;;;13.94;73.38;95668.88;4954260;28;20031;-71
2022/05/06 01:25:13;;;;;;;1999.90;999.90;;;;;;;13.91;73.87;95694.34;4971545;28;20049;-71
2022/05/06 01:28:03;;;;;;;1999.90;999.90;;;;;;;13.86;73.46;95645.56;4971583;28;20129;-71
2022/05/06 01:30:43;;;;;;;1999.90;999.90;;;;;;;13.72;74.99;95667.13;4971483;28;20078;-72
2022/05/06 01:33:14;;;;;;;1999.90;999.90;;;;;;;14.72;73.49;95695.72;4954112;28;20061;-71
2022/05/06 01:35:45;;;;;;;1999.90;999.90;;;;;;;15.02;72.58;95673.31;4954256;28;20050;-72
2022/05/06 01:38:18;;;;;;;1999.90;999.90;;;;;;;15.17;71.58;95696.13;4953791;28;20041;-71
2022/05/06 01:40:50;;;;;;;1999.90;999.90;;;;;;;15.19;71.79;95677.81;4954115;28;20026;-72
2022/05/06 01:43:18;;;;;;;1999.90;999.90;;;;;;;15.59;72.10;95701.66;4971188;28;20082;-71
2022/05/06 01:45:47;;;;;;;1999.90;999.90;;;;;;;15.71;71.91;95682.22;4953963;28;20043;-72
2022/05/06 01:48:16;;;;;;;1999.90;999.90;;;;;;;15.98;71.49;95710.53;4953687;28;20365;-72
2022/05/06 01:50:44;;;;;;;1999.90;999.90;;;;;;;16.10;71.85;95722.13;4954224;28;20034;-72
2022/05/06 01:53:10;;;;;;;1999.90;999.90;;;;;;;16.13;72.07;95714.53;4954020;28;20541;-71
2022/05/06 01:55:36;;;;;;;1999.90;999.90;;;;;;;16.07;71.69;95704.00;4954106;28;20114;-71
2022/05/06 01:58:04;;;;;;;1999.90;999.90;;;;;;;16.05;70.54;95700.84;4971067;28;20066;-72
2022/05/06 02:00:29;;;;;;;1999.90;999.90;;;;;;;16.19;70.89;95713.25;4953982;28;20033;-71
2022/05/06 02:02:56;;;;;;;1999.90;999.90;;;;;;;15.92;70.11;95688.47;4971271;28;20110;-71
2022/05/06 02:05:22;;;;;;;1999.90;999.90;;;;;;;16.00;70.50;95684.13;4971103;28;20106;-71
2022/05/06 02:07:50;;;;;;;1999.90;999.90;;;;;;;16.26;71.10;95710.81;4953753;28;20041;-72
2022/05/06 02:10:20;;;;;;;1999.90;999.90;;;;;;;16.26;70.81;95698.19;4953482;28;20039;-71
2022/05/06 02:12:46;;;;;;;1999.90;999.90;;;;;;;16.37;70.56;95698.56;4970939;28;20031;-71
2022/05/06 02:15:12;;;;;;;1999.90;999.90;;;;;;;16.07;70.48;95693.25;4970939;28;20544;-71
2022/05/06 02:17:39;;;;;;;1999.90;999.90;;;;;;;16.18;70.74;95698.25;4953624;28;20113;-71
2022/05/06 02:20:07;;;;;;;1999.90;999.90;;;;;;;15.98;70.71;95673.75;4973202;28;20038;-72
2022/05/06 02:22:33;;;;;;;1999.90;999.90;;;;;;;16.08;70.52;95688.69;4974785;28;20039;-71
2022/05/06 02:24:59;;;;;;;1999.90;999.90;;;;;;;15.95;70.76;95668.22;4974849;28;20027;-72
2022/05/06 02:27:25;;;;;;;1999.90;999.90;;;;;;;16.00;70.79;95676.88;4974591;28;20078;-71
2022/05/06 02:35:19;;;;;;;1999.90;999.90;;;;;;;15.38;70.59;95685.50;4974681;28;20114;-71
2022/05/06 02:37:44;;;;;;;1999.90;999.90;;;;;;;15.63;70.28;95709.84;4974288;28;20446;-71
2022/05/06 02:40:11;;;;;;;1999.90;999.90;;;;;;;15.51;70.32;95708.66;4974244;28;20041;-71
2022/05/06 02:42:36;;;;;;;1999.90;999.90;;;;;;;15.44;70.32;95702.97;4974394;28;20033;-71
2022/05/06 02:45:02;;;;;;;1999.90;999.90;;;;;;;15.39;70.50;95694.31;4955914;28;20211;-71
2022/05/06 02:47:29;;;;;;;1999.90;999.90;;;;;;;15.50;70.34;95699.00;4973291;28;20038;-71
2022/05/06 02:49:54;;;;;;;1999.90;999.90;;;;;;;15.25;69.87;95702.56;4956785;28;20552;-70
2022/05/06 02:52:20;;;;;;;1999.90;999.90;;;;;;;14.73;70.87;95689.25;4974523;28;20034;-71
2022/05/06 02:54:46;;;;;;;1999.90;999.90;;;;;;;14.82;71.65;95701.53;4974206;28;20031;-71
2022/05/06 02:57:11;;;;;;;1999.90;999.90;;;;;;;14.76;71.41;95700.13;4956749;28;20472;-71
2022/05/06 02:59:39;;;;;;;1999.90;999.90;;;;;;;14.85;72.03;95702.81;4973779;28;20062;-71
2022/05/06 03:02:04;;;;;;;1999.90;999.90;;;;;;;14.86;72.34;95701.69;4956728;28;20053;-71
2022/05/06 03:04:31;;;;;;;1999.90;999.90;;;;;;;14.67;72.96;95703.91;4974168;28;20484;-71
2022/05/06 03:06:56;;;;;;;1999.90;999.90;;;;;;;15.17;72.03;95701.47;4974017;28;20031;-71
2022/05/06 03:09:22;;;;;;;1999.90;999.90;;;;;;;15.02;72.35;95704.66;4973679;28;20072;-71
2022/05/06 03:11:47;;;;;;;1999.90;999.90;;;;;;;15.08;71.58;95704.16;4956598;28;20109;-70
2022/05/06 03:14:12;;;;;;;1999.90;999.90;;;;;;;15.12;72.28;95676.75;4956621;28;20022;-70
2022/05/06 03:16:38;;;;;;;1999.90;999.90;;;;;;;15.29;71.66;95687.41;4956611;28;20502;-71
2022/05/06 03:19:03;;;;;;;1999.90;999.90;;;;;;;15.50;71.68;95699.00;4956134;28;20031;-70
2022/05/06 03:21:28;;;;;;;1999.90;999.90;;;;;;;15.70;71.85;95696.75;4973496;28;20035;-71
2022/05/06 03:23:55;;;;;;;1999.90;999.90;;;;;;;15.66;71.59;95707.38;4956523;28;20031;-70
2022/05/06 03:26:20;;;;;;;1999.90;999.90;;;;;;;15.75;71.00;95701.94;4956070;28;20114;-71
2022/05/06 03:28:46;;;;;;;1999.90;999.90;;;;;;;15.29;69.87;95698.13;4973422;28;20045;-70
2022/05/06 03:31:14;;;;;;;1999.90;999.90;;;;;;;15.32;71.16;95687.56;4973292;28;20105;-71
2022/05/06 03:33:42;;;;;;;1999.90;999.90;;;;;;;15.28;71.18;95692.00;4973812;28;20097;-71
2022/05/06 03:36:11;;;;;;;1999.90;999.90;;;;;;;15.37;70.78;95691.97;4956280;28;20027;-70
2022/05/06 03:38:37;;;;;;;1999.90;999.90;;;;;;;15.45;71.82;95704.53;4973049;28;20092;-71
2022/05/06 03:41:02;;;;;;;1999.90;999.90;;;;;;;15.48;71.94;95709.28;4956276;28;20479;-70
2022/05/06 03:43:28;;;;;;;1999.90;999.90;;;;;;;15.53;71.19;95714.47;4955992;28;20031;-70
2022/05/06 03:45:54;;;;;;;1999.90;999.90;;;;;;;15.24;70.76;95680.34;4956112;28;20057;-70
2022/05/06 03:48:24;;;;;;;1999.90;999.90;;;;;;;15.30;70.63;95700.50;4955496;28;20069;-70
2022/05/06 03:53:42;;;;;;;1999.90;999.90;;;;;;;15.39;71.30;95700.47;4973138;28;20494;-71
2022/05/06 03:56:08;;;;;;;1999.90;999.90;;;;;;;15.12;71.49;95698.19;4973230;28;20468;-71
2022/05/06 03:58:33;;;;;;;1999.90;999.90;;;;;;;15.14;72.42;95695.97;4972740;28;20041;-71
2022/05/06 04:00:59;;;;;;;1999.90;999.90;;;;;;;15.38;71.77;95711.53;4973275;28;20386;-70
2022/05/06 04:03:24;;;;;;;1999.90;999.90;;;;;;;15.46;71.31;95708.03;4972618;28;20027;-70
2022/05/06 04:05:50;;;;;;;1999.90;999.90;;;;;;;14.92;71.19;95694.28;4955735;28;20105;-70
2022/05/06 04:08:15;;;;;;;1999.90;999.90;;;;;;;15.00;72.53;95699.63;4972705;28;20038;-70
2022/05/06 04:10:41;;;;;;;1999.90;999.90;;;;;;;14.72;71.64;95709.88;4973259;28;20027;-70
2022/05/06 04:13:06;;;;;;;1999.90;999.90;;;;;;;15.15;72.14;95701.03;4972959;28;20031;-70
2022/05/06 04:15:32;;;;;;;1999.90;999.90;;;;;;;15.66;71.99;95723.44;4972948;28;20039;-70
2022/05/06 04:17:59;;;;;;;1999.90;999.90;;;;;;;15.98;72.27;95740.03;4972279;28;20109;-70
2022/05/06 04:25:52;;;;;;;1999.90;999.90;;;;;;;16.45;71.05;95740.69;4972972;28;20459;-71
2022/05/06 04:28:17;;;;;;;1999.90;999.90;;;;;;;16.44;70.74;95731.06;4972387;28;20030;-70
2022/05/06 04:30:43;;;;;;;1999.90;999.90;;;;;;;16.59;70.66;95748.50;4972507;28;20023;-72
2022/05/06 04:33:08;;;;;;;1999.90;999.90;;;;;;;16.04;68.24;95757.50;4972446;28;20046;-72
2022/05/06 04:35:34;;;;;;;1999.90;999.90;;;;;;;16.15;70.21;95763.31;4955315;28;20027;-70
2022/05/06 04:38:00;;;;;;;1999.90;999.90;;;;;;;16.15;70.66;95734.56;4972151;28;20065;-70
2022/05/06 04:40:26;;;;;;;1999.90;999.90;;;;;;;16.24;70.70;95738.00;4972211;28;20058;-71
2022/05/06 04:42:51;;;;;;;1999.90;999.90;;;;;;;16.36;70.50;95731.91;4971613;28;20440;-71
2022/05/06 04:45:17;;;;;;;1999.90;999.90;;;;;;;16.63;70.61;95752.91;4971940;28;20034;-71
2022/05/06 04:47:42;;;;;;;1999.90;999.90;;;;;;;16.64;70.59;95759.84;4954970;28;20057;-71
2022/05/06 04:50:08;;;;;;;1999.90;999.90;;;;;;;16.03;67.31;95751.38;4971780;28;20041;-71
2022/05/06 04:52:33;;;;;;;1999.90;999.90;;;;;;;15.05;70.34;95758.41;4954850;28;20027;-71
2022/05/06 04:54:59;;;;;;;1999.90;999.90;;;;;;;15.69;70.74;95752.28;4972213;28;20384;-70
2022/05/06 04:57:24;;;;;;;1999.90;999.90;;;;;;;15.99;70.99;95737.03;4954682;28;20396;-72
2022/05/06 04:59:50;;;;;;;1999.90;999.90;;;;;;;16.27;71.00;95725.81;4971802;28;20102;-71
2022/05/06 05:02:16;;;;;;;1999.90;999.90;;;;;;;16.70;70.95;95747.00;4971937;28;20042;-67
2022/05/06 05:04:42;;;;;;;1999.90;999.90;;;;;;;16.87;70.71;95746.09;4971909;28;20023;-67
2022/05/06 05:07:08;;;;;;;1999.90;999.90;;;;;;;17.03;70.20;95748.97;4954451;28;20025;-67
2022/05/06 05:09:33;;;;;;;1999.90;999.90;;;;;;;15.62;67.52;95740.47;4953811;28;20027;-71
2022/05/06 05:11:59;;;;;;;1999.90;999.90;;;;;;;15.46;69.07;95740.22;4954510;28;20041;-70
2022/05/06 05:14:24;;;;;;;1999.90;999.90;;;;;;;14.78;70.74;95727.38;4972650;28;20357;-70
2022/05/06 05:16:50;;;;;;;1999.90;999.90;;;;;;;15.03;71.26;95735.72;4953397;28;20026;-69
2022/05/06 05:19:16;;;;;;;1999.90;999.90;;;;;;;15.64;70.33;95751.69;4970529;28;20539;-67
2022/05/06 05:21:42;;;;;;;1999.90;999.90;;;;;;;16.02;70.92;95747.13;4971666;28;20522;-68
2022/05/06 05:24:07;;;;;;;1999.90;999.90;;;;;;;16.52;71.39;95757.06;4953886;28;20030;-68
2022/05/06 05:26:33;;;;;;;1999.90;999.90;;;;;;;16.81;71.27;95772.38;4971194;28;20034;-68
2022/05/06 05:28:59;;;;;;;1999.90;999.90;;;;;;;17.00;70.70;95752.31;4970776;28;20023;-68
2022/05/06 05:31:24;;;;;;;1999.90;999.90;;;;;;;17.27;70.57;95769.78;4971153;28;20054;-67
2022/05/06 05:33:52;;;;;;;1999.90;999.90;;;;;;;17.40;70.30;95766.00;4971481;28;20064;-68
2022/05/06 05:36:18;;;;;;;1999.90;999.90;;;;;;;17.58;69.83;95778.16;4971495;28;20472;-68
2022/05/06 05:38:43;;;;;;;1999.90;999.90;;;;;;;17.20;69.18;95737.25;4970460;28;20041;-71
2022/05/06 05:41:08;;;;;;;1999.90;999.90;;;;;;;16.65;68.98;95752.56;4975758;28;20039;-71
2022/05/06 05:49:02;;;;;;;1999.90;999.90;;;;;;;16.02;70.59;95768.59;4971075;28;20122;-70
2022/05/06 05:51:27;;;;;;;1999.90;999.90;;;;;;;15.94;70.32;95750.63;4978774;28;20109;-70
2022/05/06 05:53:53;;;;;;;1999.90;999.90;;;;;;;16.05;69.96;95754.50;4975079;28;20050;-72
2022/05/06 05:56:18;;;;;;;1999.90;999.90;;;;;;;16.59;70.08;95770.78;4971058;28;20113;-70
2022/05/06 05:58:44;;;;;;;1999.90;999.90;;;;;;;16.91;70.17;95768.50;4953219;28;20038;-70
2022/05/06 06:01:11;;;;;;;1999.90;999.90;;;;;;;16.96;68.87;95760.25;4972376;28;20038;-69
2022/05/06 06:03:37;;;;;;;1999.90;999.90;;;;;;;16.64;67.87;95710.72;4973194;28;20023;-69
2022/05/06 06:06:02;;;;;;;1999.90;999.90;;;;;;;16.13;67.18;95766.31;4975753;28;20085;-71
2022/05/06 06:08:28;;;;;;;1999.90;999.90;;;;;;;16.16;69.28;95751.44;4978127;28;20110;-73
2022/05/06 06:10:53;;;;;;;1999.90;999.90;;;;;;;16.83;69.52;95770.16;4970623;28;20062;-71
2022/05/06 06:13:19;;;;;;;1999.90;999.90;;;;;;;17.23;69.70;95766.19;4968749;28;20030;-71
2022/05/06 06:15:44;;;;;;;1999.90;999.90;;;;;;;16.65;67.57;95733.75;4975849;28;20023;-72
2022/05/06 06:18:09;;;;;;;1999.90;999.90;;;;;;;16.96;68.37;95724.53;4988108;28;20031;-70
2022/05/06 06:20:37;;;;;;;1999.90;999.90;;;;;;;16.70;68.04;95765.03;4971135;28;20027;-72
2022/05/06 06:23:02;;;;;;;1999.90;999.90;;;;;;;17.32;68.41;95777.66;4971319;28;20114;-71
2022/05/06 06:25:28;;;;;;;1999.90;999.90;;;;;;;17.18;68.43;95777.13;4952195;28;20515;-70
2022/05/06 06:27:53;;;;;;;1999.90;999.90;;;;;;;16.82;68.02;95752.47;4978525;28;20030;-68
2022/05/06 06:30:19;;;;;;;1999.90;999.90;;;;;;;16.55;67.14;95759.13;4971237;28;20038;-65
2022/05/06 06:32:44;;;;;;;1999.90;999.90;;;;;;;16.54;68.73;95752.19;4970865;28;20027;-70
2022/05/06 06:35:10;;;;;;;1999.90;999.90;;;;;;;17.11;67.51;95765.03;4969491;28;20183;-68
2022/05/06 06:37:35;;;;;;;1999.90;999.90;;;;;;;17.04;67.98;95751.31;4954152;28;20026;-72
2022/05/06 06:40:01;;;;;;;1999.90;999.90;;;;;;;17.54;67.73;95771.88;4987630;28;20038;-68
2022/05/06 06:42:26;;;;;;;1999.90;999.90;;;;;;;17.24;67.56;95757.78;4955744;28;20121;-69
2022/05/06 06:44:52;;;;;;;1999.90;999.90;;;;;;;17.61;67.31;95761.38;4970625;28;20121;-69
2022/05/06 06:47:17;;;;;;;1999.90;999.90;;;;;;;17.76;67.27;95756.47;4972231;28;20153;-67
2022/05/06 06:49:43;;;;;;;1999.90;999.90;;;;;;;17.46;66.36;95764.69;4968423;28;20098;-68
2022/05/06 06:52:08;;;;;;;1999.90;999.90;;;;;;;17.58;66.24;95762.03;4970805;28;20061;-69
2022/05/06 06:54:33;;;;;;;1999.90;999.90;;;;;;;17.71;65.25;95754.78;4971255;28;20029;-65
2022/05/06 06:56:59;;;;;;;1999.90;999.90;;;;;;;17.80;66.50;95760.84;4968545;28;20035;-65
2022/05/06 06:59:24;;;;;;;1999.90;999.90;;;;;;;18.16;66.68;95764.69;4950931;28;20724;-64
2022/05/06 07:01:50;;;;;;;1999.90;999.90;;;;;;;16.92;66.05;95762.03;4953457;28;20078;-63
2022/05/06 07:04:15;;;;;;;1999.90;999.90;;;;;;;17.19;65.35;95757.97;4969859;28;20027;-66
2022/05/06 07:12:09;;;;;;;1999.90;999.90;;;;;;;17.25;66.20;95772.81;4972530;28;20051;-66
2022/05/06 07:14:35;;;;;;;1999.90;999.90;;;;;;;17.27;65.20;95767.09;4982547;28;20031;-63
2022/05/06 07:17:02;;;;;;;1999.90;999.90;;;;;;;16.94;64.68;95784.00;4982623;28;20062;-63
2022/05/06 07:19:28;;;;;;;1999.90;999.90;;;;;;;16.70;63.97;95792.66;4973319;28;20515;-66
2022/05/06 07:21:53;;;;;;;1999.90;999.90;;;;;;;16.58;65.49;95776.47;4972290;28;20142;-64
2022/05/06 07:24:20;;;;;;;1999.90;999.90;;;;;;;17.27;65.62;95788.59;4972727;28;20038;-65
2022/05/06 07:26:48;;;;;;;1999.90;999.90;;;;;;;17.45;64.13;95771.16;4972826;28;20119;-63
2022/05/06 07:29:14;;;;;;;1999.90;999.90;;;;;;;17.26;64.77;95777.06;4978755;28;20038;-66
2022/05/06 07:31:43;;;;;;;1999.90;999.90;;;;;;;16.97;65.98;95787.91;4972333;28;20472;-64
2022/05/06 07:34:12;;;;;;;1999.90;999.90;;;;;;;17.18;65.17;95790.59;4972836;28;20102;-64
2022/05/06 07:36:44;;;;;;;1999.90;999.90;;;;;;;16.87;66.00;95783.72;4973784;28;20031;-66
2022/05/06 07:39:10;;;;;;;;;;;;;;;16.84;66.20;95793.22;4973938;28;20513;-66
2022/05/06 07:41:35;;;;;;;1999.90;999.90;;;;;;;17.67;66.82;95781.56;4974005;28;19942;-64
2022/05/06 07:44:01;;;;;;;1999.90;999.90;;;;;;;17.98;66.48;95779.50;4978362;28;20065;-65
2022/05/06 07:46:26;;;;;;;1999.90;999.90;;;;;;;17.57;64.07;95776.59;4975581;28;20030;-65
2022/05/06 07:48:52;;;;;;;1999.90;999.90;;;;;;;17.51;64.48;95783.31;4975466;28;20537;-68
2022/05/06 07:51:17;;;;;;;1999.90;999.90;;;;;;;17.60;63.79;95767.84;4973492;28;20027;-64
2022/05/06 07:53:43;;;;;;;1999.90;999.90;;;;;;;17.64;64.64;95763.38;4973766;28;20431;-65
2022/05/06 07:56:08;;;;;;;1999.90;999.90;;;;;;;18.23;63.67;95777.59;4973663;28;20050;-66
2022/05/06 07:58:35;;;;;;;1999.90;999.90;;;;;;;18.45;63.77;95787.91;4973261;28;20811;-65
2022/05/06 08:01:01;;;;;;;1999.90;999.90;;;;;;;17.68;63.06;95785.81;4954259;29;20514;-65
2022/05/06 08:06:11;;;;;;;1999.90;999.90;;;;;;;17.57;63.55;95786.56;4969924;28;20093;-65
2022/05/06 08:08:37;;;;;;;1999.90;999.90;;;;;;;17.20;64.38;95793.72;4955613;28;20535;-65
2022/05/06 08:11:02;;;;;;;1999.90;999.90;;;;;;;16.95;62.35;95790.94;4973436;28;20114;-65
2022/05/06 08:13:28;;;;;;;1999.90;999.90;;;;;;;17.93;64.09;95789.38;4973134;28;20388;-65
2022/05/06 08:15:55;;;;;;;1999.90;999.90;;;;;;;18.04;62.54;95797.78;4990923;28;20399;-66
2022/05/06 08:18:21;;;;;;;1999.90;999.90;;;;;;;18.51;63.85;95805.41;4992029;28;20048;-66
2022/05/06 08:20:47;;;;;;;1999.90;999.90;;;;;;;18.70;63.12;95804.88;4961477;28;20795;-66
2022/05/06 08:23:13;;;;;;;1999.90;999.90;;;;;;;18.49;62.95;95799.59;4955763;28;20026;-67
2022/05/06 08:25:39;;;;;;;1999.90;999.90;;;;;;;18.67;62.31;95805.50;4973024;28;20476;-67
2022/05/06 08:28:07;;;;;;;1999.90;999.90;;;;;;;18.69;61.37;95798.69;4973016;28;20031;-66
2022/05/06 08:30:32;;;;;;;1999.90;999.90;;;;;;;18.42;61.48;95799.34;4968988;28;20608;-67
2022/05/06 08:32:57;;;;;;;1999.90;999.90;;;;;;;18.65;60.38;95799.69;4974620;28;20054;-65
2022/05/06 08:35:23;;;;;;;1999.90;999.90;;;;;;;18.67;60.43;95806.28;4983167;28;20109;-66
2022/05/06 08:37:48;;;;;;;1999.90;999.90;;;;;;;18.31;62.21;95792.84;4955392;28;20029;-65
2022/05/06 08:40:18;;;;;;;1999.90;999.90;;;;;;;18.05;61.33;95802.03;4955125;28;20063;-66
2022/05/06 08:42:44;;;;;;;1999.90;999.90;;;;;;;18.52;61.83;95809.66;4976389;23;20380;-67
2022/05/06 08:50:52;;;;;;;1999.90;999.90;;;;;;;17.92;64.50;95808.53;5000196;28;20088;-67
2022/05/06 08:53:29;;;;;;;1999.90;999.90;;;;;;;18.35;62.62;95818.78;4974174;28;20073;-68
2022/05/06 08:55:56;;;;;;;1999.90;999.90;;;;;;;18.73;63.80;95822.25;4974322;28;20023;-67
2022/05/06 08:58:23;;;;;;;1999.90;999.90;;;;;;;18.01;63.55;95811.13;4991210;28;20052;-67
2022/05/06 09:00:49;;;;;;;1999.90;999.90;;;;;;;18.35;63.13;95810.69;4976032;28;20596;-67
2022/05/06 09:03:15;;;;;;;1999.90;999.90;;;;;;;17.61;61.57;95796.34;4972072;28;20041;-68
2022/05/06 09:05:49;;;;;;;1999.90;999.90;;;;;;;16.99;64.96;95824.06;4962177;28;20030;-67
2022/05/06 09:08:14;;;;;;;1999.90;999.90;;;;;;;16.61;66.53;95792.72;4991037;28;20138;-67
2022/05/06 09:10:40;;;;;;;1999.90;999.90;;;;;;;16.07;68.34;95843.53;4973578;28;20178;-67
2022/05/06 09:13:05;;;;;;;1999.90;999.90;;;;;;;15.63;70.33;95809.09;4991409;28;20036;-67
2022/05/06 09:18:20;;;;;;;1999.90;999.90;;;;;;;17.61;67.42;95811.69;4971743;28;20060;-67
2022/05/06 09:20:47;;;;;;;1999.90;999.90;;;;;;;17.87;64.96;95838.38;4978976;28;20077;-67
2022/05/06 09:23:26;;;;;;;1999.90;999.90;;;;;;;15.89;68.85;95825.13;4991358;28;20037;-67
2022/05/06 09:25:53;;;;;;;1999.90;999.90;;;;;;;15.24;70.88;95835.78;4991179;28;20023;-67
2022/05/06 09:28:30;;;;;;;1999.90;999.90;;;;;;;15.68;70.72;95831.19;4972685;28;20018;-67
2022/05/06 09:30:59;;;;;;;1999.90;999.90;;;;;;;15.54;71.31;95839.38;4958706;28;20044;-67
2022/05/06 09:33:25;;;;;;;1999.90;999.90;;;;;;;16.13;70.21;95846.03;4971527;28;20106;-67
2022/05/06 09:35:51;;;;;;;1999.90;999.90;;;;;;;17.00;68.70;95833.75;4961107;28;20030;-66
2022/05/06 09:38:16;;;;;;;1999.90;999.90;;;;;;;16.67;66.83;95824.75;4972803;28;20042;-66
2022/05/06 09:40:42;;;;;;;1999.90;999.90;;;;;;;16.71;67.56;95847.19;4990909;28;20062;-71
2022/05/06 09:43:16;;;;;;;1999.90;999.90;;;;;;;16.25;66.86;95825.44;4990417;28;20028;-67
2022/05/06 09:45:45;;;;;;;1999.90;999.90;;;;;;;16.60;66.99;95826.06;4979239;28;20027;-69
2022/05/06 09:48:12;;;;;;;1999.90;999.90;;;;;;;17.47;65.64;95846.94;4953671;28;20370;-70
2022/05/06 09:50:39;;;;;;;1999.90;999.90;;;;;;;17.30;66.10;95842.50;4957869;28;20027;-67
2022/05/06 09:53:08;;;;;;;1999.90;999.90;;;;;;;16.79;66.40;95827.56;4990800;28;20050;-67
2022/05/06 09:55:36;;;;;;;1999.90;999.90;;;;;;;17.08;66.33;95834.78;4990518;28;20037;-67
2022/05/06 09:58:02;;;;;;;1999.90;999.90;;;;;;;15.24;70.71;95851.84;4990376;28;20026;-68
2022/05/06 10:00:28;;;;;;;1999.90;999.90;;;;;;;15.56;69.85;95823.78;4964464;28;20122;-66
2022/05/06 10:02:55;;;;;;;1999.90;999.90;;;;;;;16.00;69.07;95827.13;4954043;28;20558;-71
2022/05/06 10:05:20;;;;;;;1999.90;999.90;;;;;;;15.87;67.58;95820.09;4971914;28;20035;-68
2022/05/06 10:07:46;;;;;;;1999.90;999.90;;;;;;;16.36;68.52;95853.50;4973210;28;20423;-67
2022/05/06 10:10:22;;;;;;;1999.90;999.90;;;;;;;15.91;68.70;95847.84;4972586;28;20023;-67
2022/05/06 10:12:53;;;;;;;1999.90;999.90;;;;;;;16.35;67.96;95849.25;4973029;28;20173;-67
2022/05/06 10:15:21;;;;;;;1999.90;999.90;;;;;;;15.63;70.40;95822.50;4966406;28;20092;-67
2022/05/06 10:17:50;;;;;;;1999.90;999.90;;;;;;;15.12;71.59;95859.75;4971049;28;20046;-67
2022/05/06 10:20:35;;;;;;;1999.90;999.90;;;;;;;15.49;70.40;95844.91;4970362;28;20023;-68
2022/05/06 10:23:15;;;;;;;1999.90;999.90;;;;;;;15.56;70.81;95847.91;4950803;29;20023;-67
2022/05/06 10:25:41;;;;;;;1999.90;999.90;;;;;;;15.44;70.61;95855.00;4951949;29;20027;-67
2022/05/06 10:34:11;;;;;;;1999.90;999.90;;;;;;;15.32;71.53;95861.78;4971044;28;20057;-66
2022/05/06 10:36:47;;;;;;;1999.90;999.90;;;;;;;15.37;71.16;95868.88;4978686;28;20034;-68
2022/05/06 10:39:22;;;;;;;1999.90;999.90;;;;;;;16.01;69.55;95863.59;4972419;28;20030;-66
2022/05/06 10:42:00;;;;;;;1999.90;999.90;;;;;;;15.72;69.33;95844.75;4976554;28;20459;-65
2022/05/06 10:44:33;;;;;;;1999.90;999.90;;;;;;;16.01;69.36;95854.75;4994246;28;20022;-67
2022/05/06 10:47:23;;;;;;;1999.90;999.90;;;;;;;15.48;69.54;95847.91;4958610;28;20037;-66
2022/05/06 10:49:52;;;;;;;1999.90;999.90;;;;;;;16.55;68.28;95861.16;4949762;28;20037;-66
2022/05/06 10:52:20;;;;;;;1999.90;999.90;;;;;;;16.22;68.90;95860.19;4987684;28;20046;-67
2022/05/06 10:54:59;;;;;;;1999.90;999.90;;;;;;;15.97;69.10;95854.63;4976412;28;20549;-66
2022/05/06 10:57:26;;;;;;;1999.90;999.90;;;;;;;15.94;68.90;95835.69;4993682;28;20041;-66
2022/05/06 11:00:06;;;;;;;1999.90;999.90;;;;;;;15.49;67.74;95716.19;4975893;28;20109;-68
2022/05/06 11:02:37;;;;;;;1999.90;999.90;;;;;;;16.38;68.13;95850.53;4974233;28;20105;-67
2022/05/06 11:05:05;;;;;;;1999.90;999.90;;;;;;;15.88;68.64;95855.75;4974446;28;20031;-66
2022/05/06 11:07:33;;;;;;;1999.90;999.90;;;;;;;15.71;68.62;95833.22;4970284;28;20038;-66
2022/05/06 11:09:58;;;;;;;1999.90;999.90;;;;;;;16.06;69.58;95841.16;4992564;28;20030;-66
2022/05/06 11:12:33;;;;;;;1999.90;999.90;;;;;;;15.65;69.91;95849.78;4993328;28;20038;-67
2022/05/06 11:14:59;;;;;;;1999.90;999.90;;;;;;;15.81;70.34;95848.19;4976053;28;20093;-66
2022/05/06 11:17:25;;;;;;;1999.90;999.90;;;;;;;15.73;69.48;95846.31;4974075;28;20046;-67
2022/05/06 11:19:51;;;;;;;1999.90;999.90;;;;;;;16.15;68.60;95844.59;4973400;28;20038;-66
2022/05/06 11:22:16;;;;;;;1999.90;999.90;;;;;;;16.02;68.12;95824.94;4985110;28;20483;-67
2022/05/06 11:24:43;;;;;;;1999.90;999.90;;;;;;;16.73;67.76;95844.97;4975930;28;20117;-67
2022/05/06 11:27:13;;;;;;;1999.90;999.90;;;;;;;16.80;68.12;95854.09;4993228;28;20029;-66
2022/05/06 11:29:58;;;;;;;1999.90;999.90;;;;;;;16.58;67.71;95854.34;4975034;28;20034;-67
2022/05/06 11:32:28;;;;;;;1999.90;999.90;;;;;;;16.85;66.84;95837.00;4975750;28;20031;-66
2022/05/06 11:35:01;;;;;;;1999.90;999.90;;;;;;;17.45;65.92;95854.53;4973827;28;20027;-67
2022/05/06 11:37:29;;;;;;;1999.90;999.90;;;;;;;17.13;64.63;95843.44;4985113;28;20108;-68